Time;durP1;ratioP1;P1;durP2;ratioP2;P2;SDS_P1;SDS_P2;PMS_P1;PMS_P2;Temp;Humidity;BMP_temperature;BMP_pressure;BME280_temperature;BME280_humidity;BME280_pressure;Samples;Min_cycle;Max_cycle;Signal;HPM_P1;HPM_P2
2022/08/10 00:01:03;;;;;;;3.78;2.72;;;;;;;;;;5056989;28;20028;-70
2022/08/10 00:03:29;;;;;;;2.25;2.05;;;;;;;;;;5056869;28;20033;-70
2022/08/10 00:05:55;;;;;;;2.47;2.30;;;;;;;;;;5057115;28;20017;-71
2022/08/10 00:08:23;;;;;;;2.78;2.58;;;;;;;;;;5057182;28;20025;-71
2022/08/10 00:10:49;;;;;;;5.70;2.40;;;;;;;;;;5057181;28;20455;-71
2022/08/10 00:13:14;;;;;;;2.53;2.33;;;;;;;;;;5057120;28;20060;-71
2022/08/10 00:15:40;;;;;;;2.55;2.35;;;;;;;;;;5056818;28;20033;-70
2022/08/10 00:18:05;;;;;;;2.65;2.45;;;;;;;;;;5056893;28;20033;-70
2022/08/10 00:20:30;;;;;;;2.75;2.30;;;;;;;;;;5056658;28;20032;-71
2022/08/10 00:22:56;;;;;;;2.95;2.20;;;;;;;;;;5055559;28;20034;-71
2022/08/10 00:25:21;;;;;;;4.85;2.28;;;;;;;;;;5055902;28;20017;-70
2022/08/10 00:27:47;;;;;;;2.75;2.50;;;;;;;;;;5056446;28;20465;-71
2022/08/10 00:30:14;;;;;;;2.10;2.00;;;;;;;;;;5056575;28;20024;-72
2022/08/10 00:32:41;;;;;;;2.20;2.00;;;;;;;;;;5056469;28;20044;-73
2022/08/10 00:35:07;;;;;;;3.30;2.47;;;;;;;;;;5056449;28;20029;-70
2022/08/10 00:37:35;;;;;;;2.78;2.38;;;;;;;;;;5055972;28;20032;-71
2022/08/10 00:40:01;;;;;;;2.58;2.38;;;;;;;;;;5056492;28;20094;-71
2022/08/10 00:42:26;;;;;;;3.17;1.95;;;;;;;;;;5056573;28;20056;-72
2022/08/10 00:44:52;;;;;;;3.85;2.33;;;;;;;;;;5055866;28;20036;-71
2022/08/10 00:47:18;;;;;;;2.78;2.55;;;;;;;;;;5054803;28;20025;-71
2022/08/10 00:49:44;;;;;;;3.78;2.53;;;;;;;;;;5055892;28;20020;-72
2022/08/10 00:52:11;;;;;;;3.50;2.08;;;;;;;;;;5055654;28;20048;-72
2022/08/10 00:54:37;;;;;;;2.85;2.35;;;;;;;;;;5054926;28;20029;-72
2022/08/10 00:57:03;;;;;;;4.80;2.72;;;;;;;;;;5056177;28;20365;-71
2022/08/10 00:59:29;;;;;;;2.55;2.28;;;;;;;;;;5054692;28;20061;-71
2022/08/10 01:01:54;;;;;;;2.35;2.17;;;;;;;;;;5056205;28;20029;-71
2022/08/10 01:04:20;;;;;;;3.38;2.22;;;;;;;;;;5055785;28;20028;-71
2022/08/10 01:06:51;;;;;;;2.08;1.80;;;;;;;;;;5055727;28;20136;-70
2022/08/10 01:09:21;;;;;;;4.03;2.40;;;;;;;;;;5055370;28;20037;-71
2022/08/10 01:12:13;;;;;;;2.65;2.45;;;;;;;;;;5037921;28;20040;-70
2022/08/10 01:14:38;;;;;;;2.28;2.17;;;;;;;;;;5032361;28;20350;-70
2022/08/10 01:17:26;;;;;;;2.38;2.22;;;;;;;;;;5055809;28;20107;-71
2022/08/10 01:19:59;;;;;;;2.58;2.38;;;;;;;;;;5055687;28;20372;-72
2022/08/10 01:22:39;;;;;;;2.58;2.38;;;;;;;;;;5055448;28;20029;-72
2022/08/10 01:25:16;;;;;;;2.33;2.13;;;;;;;;;;5054373;28;20423;-71
2022/08/10 01:27:53;;;;;;;2.17;2.08;;;;;;;;;;5054082;28;20028;-71
2022/08/10 01:30:21;;;;;;;3.03;2.58;;;;;;;;;;5055399;28;20111;-70
2022/08/10 01:33:06;;;;;;;2.53;2.38;;;;;;;;;;5055209;28;20070;-71
2022/08/10 01:35:32;;;;;;;2.83;2.40;;;;;;;;;;5037266;28;20029;-72
2022/08/10 01:38:13;;;;;;;3.50;2.80;;;;;;;;;;5053299;28;20025;-72
2022/08/10 01:40:43;;;;;;;38.15;10.80;;;;;;;;;;5055470;28;20116;-73
2022/08/10 01:43:13;;;;;;;21.95;7.25;;;;;;;;;;5055277;28;20029;-72
2022/08/10 01:45:41;;;;;;;4.53;3.10;;;;;;;;;;5053883;28;20086;-72
2022/08/10 01:48:27;;;;;;;5.88;2.63;;;;;;;;;;5054872;28;20407;-71
2022/08/10 01:50:55;;;;;;;2.35;2.13;;;;;;;;;;5055083;28;20111;-70
2022/08/10 01:53:23;;;;;;;2.78;2.15;;;;;;;;;;5053898;28;20082;-70
2022/08/10 01:55:50;;;;;;;2.28;2.08;;;;;;;;;;5053861;28;20426;-70
2022/08/10 01:58:17;;;;;;;2.40;2.20;;;;;;;;;;5053567;28;20479;-72
2022/08/10 02:00:44;;;;;;;2.17;2.00;;;;;;;;;;5053744;28;20071;-72
2022/08/10 02:03:11;;;;;;;2.47;2.28;;;;;;;;;;5055081;28;20052;-71
2022/08/10 02:05:38;;;;;;;2.55;2.20;;;;;;;;;;5054814;28;20044;-70
2022/08/10 02:08:04;;;;;;;2.92;2.53;;;;;;;;;;5054495;28;20021;-70
2022/08/10 02:10:31;;;;;;;2.28;2.08;;;;;;;;;;5054740;28;20118;-70
2022/08/10 02:12:57;;;;;;;2.60;2.40;;;;;;;;;;5053556;28;20020;-70
2022/08/10 02:15:25;;;;;;;2.72;2.45;;;;;;;;;;5053477;28;20035;-73
2022/08/10 02:17:54;;;;;;;2.55;2.03;;;;;;;;;;5054513;28;20361;-73
2022/08/10 02:20:22;;;;;;;2.33;2.13;;;;;;;;;;5053429;28;20025;-73
2022/08/10 02:22:51;;;;;;;2.92;2.63;;;;;;;;;;5054454;28;20013;-72
2022/08/10 02:25:18;;;;;;;2.40;2.20;;;;;;;;;;5054363;28;20033;-71
2022/08/10 02:27:44;;;;;;;5.35;2.70;;;;;;;;;;5054365;28;20373;-71
2022/08/10 02:30:11;;;;;;;2.55;2.25;;;;;;;;;;5053214;28;20083;-71
2022/08/10 02:32:36;;;;;;;2.65;2.45;;;;;;;;;;5054395;28;20021;-71
2022/08/10 02:35:04;;;;;;;2.83;2.58;;;;;;;;;;5054234;28;20033;-71
2022/08/10 02:37:29;;;;;;;2.30;2.10;;;;;;;;;;5054405;28;20024;-71
2022/08/10 02:39:55;;;;;;;3.08;2.28;;;;;;;;;;5052919;28;20056;-71
2022/08/10 02:42:33;;;;;;;3.38;2.85;;;;;;;;;;5054072;28;20021;-71
2022/08/10 02:45:07;;;;;;;2.67;2.42;;;;;;;;;;5054280;28;20107;-71
2022/08/10 02:47:48;;;;;;;3.85;2.78;;;;;;;;;;5053997;28;20115;-71
2022/08/10 02:50:13;;;;;;;;;;;;;;;;;;5052907;28;20033;-71
2022/08/10 02:52:49;;;;;;;2.75;2.45;;;;;;;;;;5053792;28;19917;-72
2022/08/10 02:55:25;;;;;;;3.13;2.55;;;;;;;;;;5053935;28;20033;-72
2022/08/10 02:57:53;;;;;;;3.55;2.70;;;;;;;;;;5053027;28;20113;-71
2022/08/10 03:00:18;;;;;;;3.03;2.72;;;;;;;;;;5053578;28;20017;-72
2022/08/10 03:02:46;;;;;;;3.88;2.80;;;;;;;;;;5053873;28;20021;-72
2022/08/10 03:05:12;;;;;;;2.90;2.67;;;;;;;;;;5053896;28;20028;-72
2022/08/10 03:07:42;;;;;;;3.05;2.53;;;;;;;;;;5052610;28;20074;-72
2022/08/10 03:10:10;;;;;;;2.63;2.53;;;;;;;;;;5052231;28;20114;-71
2022/08/10 03:12:37;;;;;;;3.00;2.72;;;;;;;;;;5053650;28;20298;-71
2022/08/10 03:15:03;;;;;;;3.20;2.75;;;;;;;;;;5053192;28;20484;-70
2022/08/10 03:17:29;;;;;;;3.33;2.80;;;;;;;;;;5052163;28;20031;-70
2022/08/10 03:19:56;;;;;;;2.90;2.70;;;;;;;;;;5052468;28;20024;-72
2022/08/10 03:22:22;;;;;;;2.60;2.40;;;;;;;;;;5053622;28;20534;-72
2022/08/10 03:24:48;;;;;;;4.72;2.63;;;;;;;;;;5053588;28;20028;-71
2022/08/10 03:27:16;;;;;;;3.50;2.88;;;;;;;;;;5053695;28;20094;-71
2022/08/10 03:29:41;;;;;;;3.20;2.85;;;;;;;;;;5053308;28;20113;-71
2022/08/10 03:32:08;;;;;;;2.50;2.30;;;;;;;;;;5051889;28;20464;-71
2022/08/10 03:34:34;;;;;;;3.05;2.65;;;;;;;;;;5051660;28;20027;-71
2022/08/10 03:37:00;;;;;;;3.95;2.45;;;;;;;;;;5053332;28;20061;-77
2022/08/10 03:39:25;;;;;;;3.70;2.80;;;;;;;;;;5053023;28;20404;-71
2022/08/10 03:41:54;;;;;;;3.40;2.75;;;;;;;;;;5052899;28;20047;-72
2022/08/10 03:44:23;;;;;;;2.83;2.63;;;;;;;;;;5051629;28;20557;-72
2022/08/10 03:46:49;;;;;;;5.50;2.95;;;;;;;;;;5053017;28;20041;-78
2022/08/10 03:49:17;;;;;;;3.95;2.75;;;;;;;;;;5051321;28;20029;-70
2022/08/10 03:51:44;;;;;;;3.03;2.83;;;;;;;;;;5052790;28;20045;-69
2022/08/10 03:54:09;;;;;;;3.55;2.85;;;;;;;;;;5053368;28;20458;-70
2022/08/10 03:56:36;;;;;;;4.30;2.53;;;;;;;;;;5052400;28;20025;-69
2022/08/10 03:59:02;;;;;;;4.68;2.72;;;;;;;;;;5051580;28;20025;-69
2022/08/10 04:01:28;;;;;;;3.28;2.47;;;;;;;;;;5054546;28;20020;-69
2022/08/10 04:03:54;;;;;;;5.32;2.85;;;;;;;;;;5056694;28;20029;-69
2022/08/10 04:06:19;;;;;;;3.13;2.78;;;;;;;;;;5056935;28;20143;-69
2022/08/10 04:08:45;;;;;;;2.80;2.60;;;;;;;;;;5056558;28;20082;-69
2022/08/10 04:11:11;;;;;;;5.22;2.88;;;;;;;;;;5056475;28;20017;-69
2022/08/10 04:13:37;;;;;;;3.17;2.88;;;;;;;;;;5056607;28;20519;-69
2022/08/10 04:16:03;;;;;;;2.60;2.40;;;;;;;;;;5056363;28;20063;-69
2022/08/10 04:18:28;;;;;;;3.00;2.65;;;;;;;;;;5056541;28;20033;-68
2022/08/10 04:20:57;;;;;;;2.70;2.50;;;;;;;;;;5055376;28;20082;-69
2022/08/10 04:23:28;;;;;;;3.03;2.72;;;;;;;;;;5055957;28;20017;-70
2022/08/10 04:25:53;;;;;;;5.85;2.67;;;;;;;;;;5055502;28;20031;-68
2022/08/10 04:28:19;;;;;;;3.40;2.80;;;;;;;;;;5055278;28;20104;-69
2022/08/10 04:30:46;;;;;;;2.78;2.65;;;;;;;;;;5055761;28;20017;-69
2022/08/10 04:33:13;;;;;;;2.95;2.70;;;;;;;;;;5055952;28;20056;-69
2022/08/10 04:35:39;;;;;;;2.85;2.58;;;;;;;;;;5055655;28;20484;-68
2022/08/10 04:38:05;;;;;;;4.32;2.75;;;;;;;;;;5054979;28;20028;-68
2022/08/10 04:40:31;;;;;;;4.38;3.05;;;;;;;;;;5054887;28;20037;-68
2022/08/10 04:43:06;;;;;;;5.35;2.88;;;;;;;;;;5053566;28;20024;-68
2022/08/10 04:45:32;;;;;;;3.95;2.45;;;;;;;;;;5053576;28;20033;-68
2022/08/10 04:47:57;;;;;;;3.53;2.70;;;;;;;;;;5054842;28;20381;-68
2022/08/10 04:50:23;;;;;;;2.80;2.60;;;;;;;;;;5053422;28;20045;-68
2022/08/10 04:52:49;;;;;;;3.28;2.95;;;;;;;;;;5053358;28;20466;-68
2022/08/10 04:55:15;;;;;;;4.07;2.90;;;;;;;;;;5054823;28;20068;-68
2022/08/10 04:57:40;;;;;;;3.10;2.90;;;;;;;;;;5054575;28;20111;-68
2022/08/10 05:00:06;;;;;;;4.78;3.15;;;;;;;;;;5048700;28;20024;-68
2022/08/10 05:02:31;;;;;;;3.67;3.38;;;;;;;;;;5049063;28;20116;-68
2022/08/10 05:04:57;;;;;;;3.70;3.08;;;;;;;;;;5049050;28;20037;-68
2022/08/10 05:07:22;;;;;;;4.05;3.22;;;;;;;;;;5049230;28;20037;-68
2022/08/10 05:09:49;;;;;;;3.67;3.03;;;;;;;;;;5050275;28;20036;-68
2022/08/10 05:12:14;;;;;;;3.20;2.85;;;;;;;;;;5051191;28;20048;-68
2022/08/10 05:14:39;;;;;;;3.80;2.80;;;;;;;;;;5050401;28;20408;-68
2022/08/10 05:17:05;;;;;;;3.50;2.83;;;;;;;;;;5051508;28;20613;-69
2022/08/10 05:19:30;;;;;;;6.57;3.70;;;;;;;;;;5050257;28;20037;-68
2022/08/10 05:21:56;;;;;;;7.32;4.00;;;;;;;;;;5051311;28;20464;-68
2022/08/10 05:24:21;;;;;;;15.77;6.32;;;;;;;;;;5052636;28;20037;-68
2022/08/10 05:26:46;;;;;;;29.55;10.63;;;;;;;;;;5051385;28;20017;-68
2022/08/10 05:29:12;;;;;;;9.02;4.78;;;;;;;;;;5052339;28;20410;-68
2022/08/10 05:31:37;;;;;;;8.85;4.30;;;;;;;;;;5052337;28;20021;-68
2022/08/10 05:34:03;;;;;;;3.97;3.13;;;;;;;;;;5050306;28;20040;-68
2022/08/10 05:36:28;;;;;;;4.53;3.58;;;;;;;;;;5051055;28;20020;-68
2022/08/10 05:38:54;;;;;;;4.70;3.40;;;;;;;;;;5051013;28;20073;-68
2022/08/10 05:41:20;;;;;;;2.72;2.53;;;;;;;;;;5050934;28;20381;-68
2022/08/10 05:43:45;;;;;;;2.97;2.72;;;;;;;;;;5051088;28;20039;-68
2022/08/10 05:46:11;;;;;;;3.55;3.10;;;;;;;;;;5051445;28;20028;-69
2022/08/10 05:48:37;;;;;;;3.35;2.78;;;;;;;;;;5051747;28;20041;-68
2022/08/10 05:51:03;;;;;;;4.07;2.65;;;;;;;;;;5051216;28;20063;-68
2022/08/10 05:53:29;;;;;;;3.30;3.00;;;;;;;;;;5051582;28;20028;-68
2022/08/10 05:55:54;;;;;;;3.50;3.20;;;;;;;;;;5050243;28;20111;-68
2022/08/10 05:58:19;;;;;;;4.35;2.70;;;;;;;;;;5050210;28;20520;-68
2022/08/10 06:00:46;;;;;;;3.30;2.47;;;;;;;;;;5049765;28;20045;-68
2022/08/10 06:03:13;;;;;;;2.78;2.45;;;;;;;;;;5051458;28;20025;-68
2022/08/10 06:05:39;;;;;;;2.85;2.58;;;;;;;;;;5051428;28;20025;-68
2022/08/10 06:08:12;;;;;;;3.00;2.47;;;;;;;;;;5050163;28;20055;-68
2022/08/10 06:10:37;;;;;;;4.47;3.13;;;;;;;;;;5051029;28;20554;-68
2022/08/10 06:15:49;;;;;;;6.80;2.83;;;;;;;;;;5054357;28;20025;-68
2022/08/10 06:18:15;;;;;;;4.22;2.65;;;;;;;;;;5036894;28;20415;-68
2022/08/10 06:20:41;;;;;;;3.00;2.70;;;;;;;;;;5054363;28;20085;-68
2022/08/10 06:23:06;;;;;;;2.67;2.50;;;;;;;;;;5054170;28;20028;-68
2022/08/10 06:25:32;;;;;;;3.65;2.58;;;;;;;;;;5053552;28;20036;-68
2022/08/10 06:27:58;;;;;;;2.50;2.30;;;;;;;;;;5052821;28;20380;-68
2022/08/10 06:30:25;;;;;;;2.65;2.28;;;;;;;;;;5054486;28;20035;-68
2022/08/10 06:32:52;;;;;;;2.63;2.25;;;;;;;;;;5054149;28;20021;-68
2022/08/10 06:35:18;;;;;;;3.40;2.15;;;;;;;;;;5054094;28;20488;-68
2022/08/10 06:37:44;;;;;;;2.47;2.28;;;;;;;;;;5052888;28;20023;-68
2022/08/10 06:40:10;;;;;;;3.13;2.28;;;;;;;;;;5053806;28;20389;-68
2022/08/10 06:42:40;;;;;;;6.75;2.28;;;;;;;;;;5053799;28;20092;-68
2022/08/10 06:45:14;;;;;;;2.45;2.30;;;;;;;;;;5054038;28;20366;-68
2022/08/10 06:47:42;;;;;;;5.03;1.95;;;;;;;;;;5052448;28;20028;-68
2022/08/10 06:50:11;;;;;;;2.35;2.00;;;;;;;;;;5053666;28;20354;-68
2022/08/10 06:52:37;;;;;;;4.05;2.17;;;;;;;;;;5053461;28;20568;-68
2022/08/10 06:55:02;;;;;;;4.05;2.05;;;;;;;;;;5053769;28;20112;-68
2022/08/10 06:57:30;;;;;;;2.40;2.20;;;;;;;;;;5053864;28;20570;-68
2022/08/10 06:59:56;;;;;;;2.20;1.92;;;;;;;;;;5053519;28;20025;-68
2022/08/10 07:02:27;;;;;;;2.40;2.10;;;;;;;;;;5053718;28;20017;-68
2022/08/10 07:05:03;;;;;;;2.28;2.08;;;;;;;;;;5054025;28;20040;-68
2022/08/10 07:07:31;;;;;;;2.40;2.20;;;;;;;;;;5053752;28;20461;-69
2022/08/10 07:09:57;;;;;;;2.25;2.00;;;;;;;;;;5053366;28;20029;-69
2022/08/10 07:12:24;;;;;;;2.63;2.42;;;;;;;;;;5052290;28;20100;-69
2022/08/10 07:14:50;;;;;;;2.50;2.30;;;;;;;;;;5053110;28;20483;-68
2022/08/10 07:17:18;;;;;;;3.67;2.15;;;;;;;;;;5053594;28;20427;-68
2022/08/10 07:20:02;;;;;;;2.63;2.28;;;;;;;;;;5053340;28;20115;-68
2022/08/10 07:22:29;;;;;;;3.88;2.30;;;;;;;;;;5053536;28;20029;-68
2022/08/10 07:24:59;;;;;;;3.40;1.88;;;;;;;;;;5053423;28;20071;-68
2022/08/10 07:27:25;;;;;;;3.75;2.22;;;;;;;;;;5053838;28;20036;-68
2022/08/10 07:29:52;;;;;;;3.80;2.00;;;;;;;;;;5053229;28;20029;-68
2022/08/10 07:32:18;;;;;;;3.72;2.38;;;;;;;;;;5053233;28;20075;-68
2022/08/10 07:34:45;;;;;;;4.45;2.30;;;;;;;;;;5052633;28;20024;-68
2022/08/10 07:37:11;;;;;;;4.88;2.40;;;;;;;;;;5056389;28;20112;-68
2022/08/10 07:39:38;;;;;;;2.20;2.00;;;;;;;;;;5057419;28;20023;-68
2022/08/10 07:42:06;;;;;;;2.33;2.15;;;;;;;;;;5057098;28;20021;-69
2022/08/10 07:44:32;;;;;;;2.85;2.20;;;;;;;;;;5057011;28;20017;-68
2022/08/10 07:47:00;;;;;;;2.30;2.10;;;;;;;;;;5057200;28;20044;-69
2022/08/10 07:49:26;;;;;;;2.25;2.05;;;;;;;;;;5056911;28;20086;-68
2022/08/10 07:51:55;;;;;;;2.88;2.10;;;;;;;;;;5055685;28;20120;-68
2022/08/10 07:54:22;;;;;;;2.00;1.70;;;;;;;;;;5057083;28;20060;-69
2022/08/10 07:56:49;;;;;;;2.25;1.98;;;;;;;;;;5057108;28;20108;-69
2022/08/10 07:59:16;;;;;;;2.50;1.95;;;;;;;;;;5056755;28;20098;-69
2022/08/10 08:01:45;;;;;;;2.08;1.83;;;;;;;;;;5057021;28;20009;-69
2022/08/10 08:04:12;;;;;;;1.88;1.77;;;;;;;;;;5056629;28;20124;-69
2022/08/10 08:06:39;;;;;;;1.73;1.63;;;;;;;;;;5056528;28;20029;-69
2022/08/10 08:09:05;;;;;;;1.88;1.45;;;;;;;;;;5054572;28;20040;-69
2022/08/10 08:11:30;;;;;;;2.25;1.60;;;;;;;;;;5055678;28;20028;-69
2022/08/10 08:13:57;;;;;;;2.10;1.50;;;;;;;;;;5054380;28;20519;-69
2022/08/10 08:16:23;;;;;;;2.53;1.67;;;;;;;;;;5053660;28;20020;-69
2022/08/10 08:18:51;;;;;;;2.00;1.77;;;;;;;;;;5055628;28;20381;-69
2022/08/10 08:21:17;;;;;;;1.70;1.63;;;;;;;;;;5055618;28;20024;-69
2022/08/10 08:23:43;;;;;;;2.08;1.80;;;;;;;;;;5055617;28;20056;-69
2022/08/10 08:26:09;;;;;;;1.80;1.70;;;;;;;;;;5053480;28;20055;-69
2022/08/10 08:28:35;;;;;;;3.53;1.80;;;;;;;;;;5054489;28;20040;-69
2022/08/10 08:31:01;;;;;;;2.47;1.80;;;;;;;;;;5055116;28;20028;-69
2022/08/10 08:33:27;;;;;;;2.53;2.15;;;;;;;;;;5055602;28;20082;-69
2022/08/10 08:35:53;;;;;;;3.28;2.00;;;;;;;;;;5055873;28;20029;-68
2022/08/10 08:38:19;;;;;;;2.05;1.60;;;;;;;;;;5038229;28;20523;-68
2022/08/10 08:40:49;;;;;;;1.70;1.60;;;;;;;;;;5056015;28;20024;-68
2022/08/10 08:43:20;;;;;;;1.65;1.60;;;;;;;;;;5055940;28;20397;-68
2022/08/10 08:45:51;;;;;;;1.95;1.58;;;;;;;;;;5055882;28;20028;-69
2022/08/10 08:48:32;;;;;;;5.13;1.85;;;;;;;;;;5053979;28;20518;-69
2022/08/10 08:51:01;;;;;;;2.00;1.90;;;;;;;;;;5054352;28;20033;-68
2022/08/10 08:53:29;;;;;;;1.80;1.67;;;;;;;;;;5056033;28;20029;-69
2022/08/10 08:55:54;;;;;;;2.38;1.85;;;;;;;;;;5056190;28;20025;-69
2022/08/10 08:58:27;;;;;;;1.67;1.58;;;;;;;;;;5055597;28;20073;-68
2022/08/10 09:01:12;;;;;;;2.20;1.85;;;;;;;;;;5055603;28;20475;-68
2022/08/10 09:03:56;;;;;;;4.95;1.58;;;;;;;;;;5055854;28;20029;-69
2022/08/10 09:06:24;;;;;;;1.63;1.38;;;;;;;;;;5056063;28;20029;-69
2022/08/10 09:08:59;;;;;;;2.03;1.40;;;;;;;;;;5054624;28;20013;-69
2022/08/10 09:11:49;;;;;;;1.80;1.70;;;;;;;;;;5055477;28;20461;-68
2022/08/10 09:14:34;;;;;;;1.98;1.88;;;;;;;;;;5055581;28;20036;-68
2022/08/10 09:17:26;;;;;;;3.72;1.40;;;;;;;;;;5055889;28;20033;-69
2022/08/10 09:20:08;;;;;;;3.78;1.60;;;;;;;;;;5024547;28;20094;-69
2022/08/10 09:22:41;;;;;;;1.75;1.65;;;;;;;;;;5054762;28;20033;-68
2022/08/10 09:25:11;;;;;;;1.75;1.65;;;;;;;;;;5055473;28;20036;-69
2022/08/10 09:27:38;;;;;;;;;;;;;;;;;;5055511;28;20048;-68
2022/08/10 09:30:05;;;;;;;3.20;1.50;;;;;;;;;;5055656;28;19905;-69
2022/08/10 09:32:37;;;;;;;4.95;1.80;;;;;;;;;;5055345;28;20044;-69
2022/08/10 09:35:11;;;;;;;4.90;2.15;;;;;;;;;;5054871;28;20040;-69
2022/08/10 09:37:43;;;;;;;3.30;2.10;;;;;;;;;;5053657;28;20484;-68
2022/08/10 09:40:16;;;;;;;3.42;1.67;;;;;;;;;;5055204;28;20104;-68
2022/08/10 09:42:41;;;;;;;2.50;1.50;;;;;;;;;;5054823;28;20388;-69
2022/08/10 09:45:08;;;;;;;1.35;1.25;;;;;;;;;;5054800;28;20017;-69
2022/08/10 09:47:34;;;;;;;1.70;1.60;;;;;;;;;;5055005;28;20036;-69
2022/08/10 09:50:02;;;;;;;1.65;1.55;;;;;;;;;;5053450;28;20021;-69
2022/08/10 09:52:47;;;;;;;1.65;1.55;;;;;;;;;;5054574;28;20053;-69
2022/08/10 09:55:15;;;;;;;5.38;1.60;;;;;;;;;;5054782;28;20135;-69
2022/08/10 09:57:49;;;;;;;2.15;1.80;;;;;;;;;;5054916;28;20021;-69
2022/08/10 10:00:18;;;;;;;2.65;1.77;;;;;;;;;;5054729;28;20029;-68
2022/08/10 10:02:49;;;;;;;3.13;1.83;;;;;;;;;;5054714;28;20021;-68
2022/08/10 10:05:24;;;;;;;5.10;1.98;;;;;;;;;;5054712;28;20033;-68
2022/08/10 10:07:56;;;;;;;2.55;1.65;;;;;;;;;;5054328;28;20041;-68
2022/08/10 10:10:25;;;;;;;1.83;1.70;;;;;;;;;;5052962;28;20033;-69
2022/08/10 10:12:50;;;;;;;7.82;2.45;;;;;;;;;;5054560;28;20028;-69
2022/08/10 10:15:24;;;;;;;1.90;1.77;;;;;;;;;;5052810;28;20025;-68
2022/08/10 10:18:09;;;;;;;2.03;1.83;;;;;;;;;;5054164;28;20112;-69
2022/08/10 10:20:53;;;;;;;1.70;1.60;;;;;;;;;;5054438;28;20028;-69
2022/08/10 10:23:33;;;;;;;1.65;1.55;;;;;;;;;;5054405;28;20032;-69
2022/08/10 10:26:14;;;;;;;4.40;2.28;;;;;;;;;;5054354;28;20068;-69
2022/08/10 10:28:39;;;;;;;;;;;;;;;;;;5054647;28;20036;-68
2022/08/10 10:31:17;;;;;;;3.58;3.30;;;;;;;;;;5053898;28;19904;-69
2022/08/10 10:33:48;;;;;;;2.47;2.00;;;;;;;;;;5052946;28;20064;-69
2022/08/10 10:36:14;;;;;;;2.42;1.98;;;;;;;;;;5053825;28;20035;-69
2022/08/10 10:38:41;;;;;;;3.22;2.00;;;;;;;;;;5035989;28;20098;-69
2022/08/10 10:41:15;;;;;;;2.10;1.98;;;;;;;;;;5054063;28;20040;-69
2022/08/10 10:43:52;;;;;;;2.38;1.90;;;;;;;;;;5054074;28;20469;-69
2022/08/10 10:46:43;;;;;;;2.05;1.60;;;;;;;;;;5053746;28;20032;-69
2022/08/10 10:49:12;;;;;;;2.10;1.70;;;;;;;;;;5053930;28;20029;-69
2022/08/10 10:51:42;;;;;;;2.33;2.05;;;;;;;;;;5053565;28;20049;-69
2022/08/10 10:54:09;;;;;;;2.10;1.90;;;;;;;;;;5053826;28;20120;-69
2022/08/10 10:56:35;;;;;;;2.17;1.48;;;;;;;;;;5053882;28;20499;-69
2022/08/10 10:59:01;;;;;;;1.83;1.73;;;;;;;;;;5053788;28;20049;-69
2022/08/10 11:01:29;;;;;;;1.38;1.30;;;;;;;;;;5053570;28;20016;-69
2022/08/10 11:04:13;;;;;;;2.13;1.60;;;;;;;;;;5053764;28;20350;-69
2022/08/10 11:06:57;;;;;;;2.05;1.70;;;;;;;;;;5053730;28;20103;-68
2022/08/10 11:09:27;;;;;;;1.92;1.38;;;;;;;;;;5053171;28;20383;-69
2022/08/10 11:11:55;;;;;;;1.80;1.70;;;;;;;;;;5052395;28;20025;-69
2022/08/10 11:14:30;;;;;;;2.08;1.73;;;;;;;;;;5053345;28;20064;-69
2022/08/10 11:17:01;;;;;;;2.80;1.80;;;;;;;;;;5053615;28;20513;-69
2022/08/10 11:19:38;;;;;;;1.80;1.70;;;;;;;;;;5052057;28;20086;-69
2022/08/10 11:22:10;;;;;;;1.55;1.48;;;;;;;;;;5053613;28;20407;-69
2022/08/10 11:24:40;;;;;;;4.07;2.80;;;;;;;;;;5053310;28;20503;-69
2022/08/10 11:27:14;;;;;;;4.60;3.40;;;;;;;;;;5053618;28;20365;-69
2022/08/10 11:29:46;;;;;;;1.70;1.60;;;;;;;;;;5051924;28;20378;-68
2022/08/10 11:32:16;;;;;;;5.28;2.20;;;;;;;;;;5053450;28;20033;-69
2022/08/10 11:35:04;;;;;;;2.00;1.90;;;;;;;;;;5053425;28;20025;-68
2022/08/10 11:37:29;;;;;;;2.88;1.77;;;;;;;;;;5052498;28;20524;-68
2022/08/10 11:39:58;;;;;;;1.63;1.52;;;;;;;;;;5052267;28;20013;-69
2022/08/10 11:42:30;;;;;;;2.60;1.45;;;;;;;;;;5053658;28;20033;-69
2022/08/10 11:45:00;;;;;;;3.08;1.50;;;;;;;;;;5051944;28;20115;-69
2022/08/10 11:47:31;;;;;;;2.42;1.60;;;;;;;;;;5053107;28;20029;-69
2022/08/10 11:50:16;;;;;;;1.70;1.60;;;;;;;;;;5053342;28;20087;-69
2022/08/10 11:52:52;;;;;;;1.42;1.33;;;;;;;;;;5052865;28;20139;-69
2022/08/10 11:55:19;;;;;;;2.10;2.00;;;;;;;;;;5053464;28;20380;-69
2022/08/10 11:57:46;;;;;;;1.52;1.42;;;;;;;;;;5051682;28;20350;-69
2022/08/10 12:00:12;;;;;;;2.90;1.67;;;;;;;;;;5053268;28;20053;-68
2022/08/10 12:02:37;;;;;;;1.90;1.65;;;;;;;;;;5051668;28;20108;-68
2022/08/10 12:05:06;;;;;;;1.67;1.38;;;;;;;;;;5053145;28;20064;-68
2022/08/10 12:07:31;;;;;;;3.40;1.50;;;;;;;;;;5053504;28;20030;-68
2022/08/10 12:09:57;;;;;;;1.55;1.45;;;;;;;;;;5053171;28;20492;-69
2022/08/10 12:12:23;;;;;;;2.85;1.73;;;;;;;;;;5052922;28;20053;-69
2022/08/10 12:14:55;;;;;;;1.50;1.40;;;;;;;;;;5053055;28;20029;-69
2022/08/10 12:17:27;;;;;;;2.75;1.65;;;;;;;;;;5051532;28;20040;-69
2022/08/10 12:19:56;;;;;;;3.38;1.52;;;;;;;;;;5053051;28;20021;-69
2022/08/10 12:22:26;;;;;;;2.08;1.90;;;;;;;;;;5053873;28;20100;-69
2022/08/10 12:24:56;;;;;;;3.30;1.38;;;;;;;;;;5056570;28;20048;-69
2022/08/10 12:27:22;;;;;;;3.10;1.40;;;;;;;;;;5056814;28;20037;-69
2022/08/10 12:30:04;;;;;;;1.38;1.13;;;;;;;;;;5056251;28;20082;-69
2022/08/10 12:32:47;;;;;;;1.48;1.20;;;;;;;;;;5038405;28;20029;-69
2022/08/10 12:35:18;;;;;;;1.77;0.90;;;;;;;;;;5054850;28;20036;-69
2022/08/10 12:37:59;;;;;;;1.02;1.00;;;;;;;;;;5055204;28;20150;-68
2022/08/10 12:40:26;;;;;;;1.52;1.30;;;;;;;;;;5055168;28;20057;-68
2022/08/10 12:43:04;;;;;;;2.60;1.40;;;;;;;;;;5056012;28;20063;-68
2022/08/10 12:45:33;;;;;;;1.38;1.27;;;;;;;;;;5055988;28;20037;-68
2022/08/10 12:48:02;;;;;;;1.38;1.30;;;;;;;;;;5055018;28;20381;-68
2022/08/10 12:50:46;;;;;;;1.60;1.50;;;;;;;;;;5056130;28;20032;-68
2022/08/10 12:53:17;;;;;;;1.33;1.23;;;;;;;;;;5056065;28;20045;-68
2022/08/10 12:55:44;;;;;;;1.35;1.25;;;;;;;;;;5056187;28;20036;-68
2022/08/10 12:58:12;;;;;;;1.50;1.40;;;;;;;;;;5056023;28;20009;-68
2022/08/10 13:00:38;;;;;;;2.00;1.13;;;;;;;;;;5054755;28;20029;-68
2022/08/10 13:03:04;;;;;;;2.08;1.10;;;;;;;;;;5055895;28;20170;-68
2022/08/10 13:05:31;;;;;;;3.13;1.50;;;;;;;;;;5055880;28;20025;-68
2022/08/10 13:10:48;;;;;;;1.92;1.55;;;;;;;;;;5055993;28;20040;-69
2022/08/10 13:13:16;;;;;;;1.45;1.00;;;;;;;;;;5055708;28;20041;-68
2022/08/10 13:15:44;;;;;;;1.30;1.20;;;;;;;;;;5055354;28;20029;-68
2022/08/10 13:18:09;;;;;;;2.67;1.30;;;;;;;;;;5055723;28;20032;-69
2022/08/10 13:20:36;;;;;;;2.00;1.80;;;;;;;;;;5055614;28;20096;-68
2022/08/10 13:23:04;;;;;;;3.00;0.98;;;;;;;;;;5055245;28;20063;-68
2022/08/10 13:25:35;;;;;;;2.03;1.52;;;;;;;;;;5055494;28;20020;-69
2022/08/10 13:28:04;;;;;;;1.17;1.17;;;;;;;;;;5055680;28;20044;-69
2022/08/10 13:30:29;;;;;;;2.08;1.30;;;;;;;;;;5055102;28;20112;-69
2022/08/10 13:32:56;;;;;;;1.48;1.05;;;;;;;;;;5054791;28;20112;-69
2022/08/10 13:35:22;;;;;;;1.30;1.20;;;;;;;;;;5053816;28;20457;-69
2022/08/10 13:37:51;;;;;;;1.83;1.20;;;;;;;;;;5054945;28;20021;-69
2022/08/10 13:40:18;;;;;;;1.88;1.52;;;;;;;;;;5055212;28;20411;-69
2022/08/10 13:42:44;;;;;;;2.17;1.15;;;;;;;;;;5053751;28;20453;-69
2022/08/10 13:45:13;;;;;;;2.50;1.30;;;;;;;;;;5053540;28;20393;-69
2022/08/10 13:47:39;;;;;;;1.42;1.33;;;;;;;;;;5055154;28;20029;-69
2022/08/10 13:50:09;;;;;;;1.77;1.23;;;;;;;;;;5054785;28;20036;-69
2022/08/10 13:52:36;;;;;;;2.72;2.20;;;;;;;;;;5054464;28;20552;-68
2022/08/10 13:55:08;;;;;;;1.83;1.27;;;;;;;;;;5054811;28;20044;-69
2022/08/10 13:57:34;;;;;;;1.30;1.20;;;;;;;;;;5054820;28;20029;-69
2022/08/10 14:00:03;;;;;;;3.25;1.40;;;;;;;;;;5055098;28;20024;-69
2022/08/10 14:02:41;;;;;;;1.50;1.05;;;;;;;;;;5055057;28;20064;-69
2022/08/10 14:05:07;;;;;;;1.87;1.40;;;;;;;;;;5037505;28;20033;-68
2022/08/10 14:07:36;;;;;;;3.10;1.08;;;;;;;;;;5054365;28;20052;-69
2022/08/10 14:10:06;;;;;;;2.03;1.30;;;;;;;;;;5054564;28;20384;-69
2022/08/10 14:12:34;;;;;;;1.33;1.08;;;;;;;;;;5054541;28;20392;-68
2022/08/10 14:15:01;;;;;;;1.13;1.10;;;;;;;;;;5053299;28;20036;-69
2022/08/10 14:17:26;;;;;;;2.17;1.25;;;;;;;;;;5054447;28;20029;-68
2022/08/10 14:19:54;;;;;;;3.17;1.20;;;;;;;;;;5054434;28;20100;-69
2022/08/10 14:22:20;;;;;;;1.55;1.33;;;;;;;;;;5054391;28;20033;-69
2022/08/10 14:24:45;;;;;;;2.92;1.00;;;;;;;;;;5054669;28;20103;-69
2022/08/10 14:27:12;;;;;;;1.30;1.02;;;;;;;;;;5054095;28;20476;-69
2022/08/10 14:29:46;;;;;;;1.38;0.90;;;;;;;;;;5054046;28;20021;-69
2022/08/10 14:32:13;;;;;;;1.83;1.00;;;;;;;;;;5052659;28;20124;-69
2022/08/10 14:34:40;;;;;;;3.05;1.33;;;;;;;;;;5053905;28;20029;-69
2022/08/10 14:37:08;;;;;;;1.80;1.35;;;;;;;;;;5052737;28;20021;-69
2022/08/10 14:39:42;;;;;;;2.10;1.30;;;;;;;;;;5054152;28;20448;-69
2022/08/10 14:42:11;;;;;;;13.40;1.90;;;;;;;;;;5053604;28;20507;-69
2022/08/10 14:45:03;;;;;;;1.10;1.10;;;;;;;;;;5051636;28;20417;-69
2022/08/10 14:47:30;;;;;;;2.05;1.33;;;;;;;;;;5049711;28;20039;-69
2022/08/10 14:49:57;;;;;;;1.77;1.13;;;;;;;;;;5052315;28;20043;-69
2022/08/10 14:52:24;;;;;;;1.80;1.55;;;;;;;;;;5052964;28;20120;-69
2022/08/10 14:54:53;;;;;;;3.15;2.30;;;;;;;;;;5053185;28;20108;-69
2022/08/10 14:57:20;;;;;;;1.73;1.63;;;;;;;;;;5052839;28;20414;-69
2022/08/10 14:59:46;;;;;;;4.18;1.48;;;;;;;;;;5052211;28;20019;-69